createdAt,value
2017-11-16T00:01:10.593Z,22.17
2017-11-16T00:03:39.156Z,19.80
2017-11-16T00:06:06.581Z,15.87
2017-11-16T00:08:34.803Z,19.60
2017-11-16T00:11:02.217Z,17.07
2017-11-16T00:13:30.865Z,18.83
2017-11-16T00:15:58.302Z,16.83
2017-11-16T00:18:25.744Z,15.43
2017-11-16T00:20:53.508Z,15.73
2017-11-16T00:23:20.922Z,13.93
2017-11-16T00:25:50.861Z,15.03
2017-11-16T00:28:19.037Z,14.43
2017-11-16T00:30:46.466Z,17.83
2017-11-16T00:33:13.887Z,17.03
2017-11-16T00:35:41.321Z,11.87
2017-11-16T00:38:08.737Z,12.53
2017-11-16T00:40:36.161Z,14.00
2017-11-16T00:43:03.581Z,10.90
2017-11-16T00:45:31.012Z,15.00
2017-11-16T00:47:58.440Z,11.53
2017-11-16T00:50:25.871Z,17.00
2017-11-16T00:52:55.741Z,13.83
2017-11-16T00:55:23.959Z,16.30
2017-11-16T00:57:51.377Z,15.77
2017-11-16T01:00:19.574Z,18.20
2017-11-16T01:02:46.994Z,13.93
2017-11-16T01:05:14.666Z,14.03
2017-11-16T01:07:43.272Z,15.03
2017-11-16T01:10:11.409Z,15.23
2017-11-16T01:12:38.839Z,16.07
2017-11-16T01:15:06.257Z,16.50
2017-11-16T01:17:34.226Z,15.53
2017-11-16T01:20:01.660Z,15.10
2017-11-16T01:22:29.097Z,15.07
2017-11-16T01:24:56.526Z,14.57
2017-11-16T01:27:23.961Z,15.63
2017-11-16T01:29:51.623Z,17.33
2017-11-16T01:32:19.811Z,16.67
2017-11-16T01:34:47.269Z,17.10
2017-11-16T01:37:14.703Z,15.67
2017-11-16T01:39:42.132Z,14.37
2017-11-16T01:42:09.562Z,16.03
2017-11-16T01:44:37.000Z,16.80
2017-11-16T01:47:04.428Z,17.50
2017-11-16T01:49:31.862Z,14.27
2017-11-16T01:51:59.283Z,15.17
2017-11-16T01:54:26.706Z,15.27
2017-11-16T01:56:54.138Z,19.20
2017-11-16T01:59:22.329Z,19.43
2017-11-16T02:01:49.767Z,15.27
2017-11-16T02:04:17.199Z,17.80
2017-11-16T02:06:44.636Z,18.53
2017-11-16T02:09:12.071Z,18.43
2017-11-16T02:11:39.507Z,17.10
2017-11-16T02:14:07.717Z,20.43
2017-11-16T02:16:35.138Z,15.10
2017-11-16T02:19:03.353Z,20.23
2017-11-16T02:21:30.778Z,17.27
2017-11-16T02:23:58.213Z,16.83
2017-11-16T02:26:26.415Z,20.70
2017-11-16T02:28:53.851Z,18.50
2017-11-16T02:31:22.057Z,17.80
2017-11-16T02:33:49.487Z,20.87
2017-11-16T02:36:18.232Z,19.27
2017-11-16T02:38:45.668Z,19.37
2017-11-16T02:41:13.093Z,21.87
2017-11-16T02:43:40.529Z,17.30
2017-11-16T02:46:07.961Z,20.50
2017-11-16T02:48:35.401Z,19.77
2017-11-16T02:51:02.831Z,17.13
2017-11-16T02:53:31.045Z,17.23
2017-11-16T02:55:58.480Z,15.93
2017-11-16T02:58:25.928Z,17.83
2017-11-16T03:00:53.352Z,16.97
2017-11-16T03:03:21.563Z,19.50
2017-11-16T03:05:48.994Z,20.47
2017-11-16T03:08:17.202Z,17.23
2017-11-16T03:10:44.641Z,17.90
2017-11-16T03:13:12.126Z,16.03
2017-11-16T03:15:39.558Z,14.63
2017-11-16T03:18:06.985Z,21.97
2017-11-16T03:20:35.197Z,17.90
2017-11-16T03:23:02.625Z,18.37
2017-11-16T03:25:30.829Z,17.00
2017-11-16T03:27:58.261Z,16.83
2017-11-16T03:30:26.468Z,14.40
2017-11-16T03:32:53.905Z,15.80
2017-11-16T03:35:21.344Z,16.43
2017-11-16T03:37:49.538Z,14.03
2017-11-16T03:40:16.983Z,15.83
2017-11-16T03:42:45.180Z,12.43
2017-11-16T03:45:15.042Z,12.80
2017-11-16T03:47:42.460Z,13.03
2017-11-16T03:50:09.907Z,11.67
2017-11-16T03:52:37.329Z,11.07
2017-11-16T03:55:05.528Z,9.57
2017-11-16T03:57:35.545Z,8.70
2017-11-16T04:00:06.086Z,7.90
2017-11-16T04:02:33.500Z,9.00
2017-11-16T04:05:01.705Z,11.23
2017-11-16T04:07:29.124Z,10.50
2017-11-16T04:09:56.547Z,9.00
2017-11-16T04:12:24.378Z,9.97
2017-11-16T04:14:51.818Z,13.37
2017-11-16T04:17:20.845Z,11.63
2017-11-16T04:19:48.293Z,9.90
2017-11-16T04:22:15.717Z,10.83
2017-11-16T04:25:01.143Z,7.70
2017-11-16T04:27:28.570Z,10.73
2017-11-16T04:29:56.774Z,10.07
2017-11-16T04:32:24.208Z,8.93
2017-11-16T04:34:51.919Z,10.23
2017-11-16T04:37:19.879Z,12.40
2017-11-16T04:39:47.315Z,13.00
2017-11-16T04:42:15.014Z,10.20
2017-11-16T04:44:42.422Z,7.70
2017-11-16T04:47:11.407Z,8.87
2017-11-16T04:49:38.838Z,8.77
2017-11-16T04:52:06.261Z,7.87
2017-11-16T04:54:33.691Z,10.70
2017-11-16T04:57:01.114Z,7.77
2017-11-16T04:59:29.296Z,6.40
2017-11-16T05:01:57.491Z,7.97
2017-11-16T05:04:24.914Z,8.13
2017-11-16T05:06:52.346Z,8.33
2017-11-16T05:09:19.771Z,7.97
2017-11-16T05:11:47.206Z,5.80
2017-11-16T05:14:14.634Z,8.67
2017-11-16T05:16:43.041Z,9.70
2017-11-16T05:19:11.248Z,8.63
2017-11-16T05:21:45.999Z,8.40
2017-11-16T05:24:13.430Z,11.67
2017-11-16T05:26:40.845Z,8.90
2017-11-16T05:29:09.042Z,10.57
2017-11-16T05:31:36.481Z,9.63
2017-11-16T05:34:04.672Z,9.90
2017-11-16T05:36:32.099Z,8.80
2017-11-16T05:38:59.539Z,11.73
2017-11-16T05:41:27.057Z,9.87
2017-11-16T05:43:54.472Z,13.73
2017-11-16T05:46:23.190Z,9.37
2017-11-16T05:48:50.614Z,12.90
2017-11-16T05:51:18.814Z,10.60
2017-11-16T05:53:47.015Z,10.67
2017-11-16T05:56:19.837Z,10.20
2017-11-16T05:58:47.271Z,9.93
2017-11-16T06:01:14.718Z,10.20
2017-11-16T06:03:42.158Z,10.30
2017-11-16T06:06:09.580Z,12.73
2017-11-16T06:08:37.794Z,11.33
2017-11-16T06:11:05.230Z,11.33
2017-11-16T06:13:32.653Z,10.30
2017-11-16T06:16:00.091Z,10.10
2017-11-16T06:18:27.643Z,13.23
2017-11-16T06:20:55.095Z,12.70
2017-11-16T06:23:28.645Z,14.57
2017-11-16T06:25:56.061Z,17.73
2017-11-16T06:28:23.494Z,17.93
2017-11-16T06:30:53.606Z,18.73
2017-11-16T06:33:21.047Z,17.83
2017-11-16T06:35:56.977Z,17.90
2017-11-16T06:38:24.418Z,15.10
2017-11-16T06:40:51.837Z,20.63
2017-11-16T06:43:20.305Z,20.77
2017-11-16T06:45:49.094Z,19.87
2017-11-16T06:48:16.953Z,23.20
2017-11-16T06:50:44.373Z,27.63
2017-11-16T06:53:12.355Z,36.40
2017-11-16T06:55:39.779Z,28.60
2017-11-16T06:58:07.198Z,34.50
2017-11-16T07:00:34.627Z,32.90
2017-11-16T07:03:02.060Z,36.33
2017-11-16T07:05:29.739Z,38.67
2017-11-16T07:07:57.162Z,35.00
2017-11-16T07:10:24.586Z,38.23
2017-11-16T07:12:52.014Z,38.97
2017-11-16T07:15:20.045Z,36.50
2017-11-16T07:17:47.468Z,37.53
2017-11-16T07:20:14.890Z,41.63
2017-11-16T07:22:42.853Z,40.70
2017-11-16T07:25:10.276Z,41.60
2017-11-16T07:27:38.471Z,44.27
2017-11-16T07:30:05.894Z,45.47
2017-11-16T07:32:43.955Z,41.47
2017-11-16T07:35:28.476Z,46.33
2017-11-16T07:38:08.494Z,40.13
2017-11-16T07:40:35.926Z,43.77
2017-11-16T07:43:05.253Z,37.13
2017-11-16T07:45:33.033Z,33.57
2017-11-16T07:48:01.220Z,41.17
2017-11-16T07:50:29.436Z,36.50
2017-11-16T07:52:57.217Z,38.73
2017-11-16T07:55:24.643Z,40.60
2017-11-16T07:57:52.358Z,40.37
2017-11-16T08:00:19.790Z,39.40
2017-11-16T08:02:47.333Z,34.93
2017-11-16T08:05:14.769Z,39.20
2017-11-16T08:07:42.193Z,38.63
2017-11-16T08:10:11.187Z,40.43
2017-11-16T08:12:39.399Z,39.07
2017-11-16T08:15:06.819Z,36.67
2017-11-16T08:17:38.370Z,35.83
2017-11-16T08:20:05.784Z,33.70
2017-11-16T08:22:36.810Z,33.10
2017-11-16T08:25:06.164Z,33.20
2017-11-16T08:27:33.591Z,31.23
2017-11-16T08:30:01.014Z,31.53
2017-11-16T08:32:28.436Z,28.97
2017-11-16T08:34:56.630Z,29.93
2017-11-16T08:37:24.821Z,32.20
2017-11-16T08:39:52.249Z,32.10
2017-11-16T08:42:20.446Z,29.90
2017-11-16T08:44:48.401Z,28.90
2017-11-16T08:47:16.594Z,30.17
2017-11-16T08:49:44.029Z,30.00
2017-11-16T08:52:12.102Z,28.47
2017-11-16T08:54:40.285Z,25.00
2017-11-16T08:57:07.709Z,25.10
2017-11-16T08:59:35.764Z,25.30
2017-11-16T09:02:06.715Z,23.07
2017-11-16T09:04:34.141Z,21.03
2017-11-16T09:07:01.690Z,21.67
2017-11-16T09:09:29.161Z,23.33
2017-11-16T09:11:57.440Z,26.17
2017-11-16T09:14:24.917Z,25.70
2017-11-16T09:16:52.407Z,24.73
2017-11-16T09:19:28.106Z,24.53
2017-11-16T09:21:56.626Z,22.73
2017-11-16T09:24:24.117Z,22.10
2017-11-16T09:26:51.608Z,23.10
2017-11-16T09:29:19.129Z,25.10
2017-11-16T09:31:47.606Z,19.80
2017-11-16T09:34:15.120Z,18.93
2017-11-16T09:36:42.623Z,20.33
2017-11-16T09:39:10.983Z,19.07
2017-11-16T09:41:38.470Z,19.47
2017-11-16T09:44:05.969Z,17.60
2017-11-16T09:46:33.568Z,17.83
2017-11-16T09:49:01.957Z,17.90
2017-11-16T09:51:30.691Z,17.40
2017-11-16T09:54:08.666Z,19.77
2017-11-16T09:56:36.182Z,15.93
2017-11-16T09:59:03.648Z,13.93
2017-11-16T10:01:31.049Z,16.70
2017-11-16T10:03:58.484Z,17.13
2017-11-16T10:06:25.903Z,14.67
2017-11-16T10:08:53.335Z,16.77
2017-11-16T10:11:20.758Z,12.10
2017-11-16T10:13:48.185Z,13.27
2017-11-16T10:16:16.373Z,15.90
2017-11-16T10:18:44.561Z,15.43
2017-11-16T10:21:13.933Z,16.70
2017-11-16T10:23:41.785Z,14.57
2017-11-16T10:26:09.202Z,15.83
2017-11-16T10:28:38.474Z,12.97
2017-11-16T10:31:06.672Z,17.80
2017-11-16T10:33:34.505Z,13.83
2017-11-16T10:36:02.761Z,13.40
2017-11-16T10:38:30.324Z,16.17
2017-11-16T10:40:57.752Z,13.80
2017-11-16T10:43:25.157Z,13.10
2017-11-16T10:45:53.361Z,18.27
2017-11-16T10:48:23.324Z,17.67
2017-11-16T10:50:57.325Z,15.43
2017-11-16T10:53:24.748Z,14.03
2017-11-16T10:55:52.262Z,14.03
2017-11-16T10:58:19.669Z,13.73
2017-11-16T11:00:47.101Z,16.53
2017-11-16T11:03:14.529Z,13.57
2017-11-16T11:05:41.954Z,14.37
2017-11-16T11:08:13.027Z,15.67
2017-11-16T11:10:40.446Z,15.67
2017-11-16T11:13:07.862Z,14.70
2017-11-16T11:15:35.293Z,15.40
2017-11-16T11:18:02.713Z,15.27
2017-11-16T11:20:30.693Z,15.47
2017-11-16T11:22:58.881Z,21.17
2017-11-16T11:25:26.316Z,20.43
2017-11-16T11:27:53.743Z,18.50
2017-11-16T11:30:22.058Z,17.83
2017-11-16T11:32:49.762Z,16.77
2017-11-16T11:35:17.954Z,17.90
2017-11-16T11:37:48.769Z,17.90
2017-11-16T11:40:16.190Z,17.37
2017-11-16T11:42:45.217Z,20.10
2017-11-16T11:45:13.402Z,23.20
2017-11-16T11:47:41.595Z,25.07
2017-11-16T11:50:09.909Z,21.43
2017-11-16T11:52:39.886Z,22.73
2017-11-16T11:55:07.847Z,19.77
2017-11-16T11:57:35.279Z,23.17
2017-11-16T12:00:02.701Z,21.43
2017-11-16T12:02:34.397Z,23.60
2017-11-16T12:05:01.825Z,26.80
2017-11-16T12:07:29.253Z,28.00
2017-11-16T12:09:56.675Z,22.77
2017-11-16T12:12:24.866Z,22.73
2017-11-16T12:14:52.289Z,24.27
2017-11-16T12:17:19.717Z,28.43
2017-11-16T12:19:48.369Z,28.07
2017-11-16T12:22:15.798Z,27.77
2017-11-16T12:24:44.145Z,30.20
2017-11-16T12:27:11.586Z,29.87
2017-11-16T12:29:39.019Z,30.77
2017-11-16T12:32:06.442Z,32.27
2017-11-16T12:34:40.945Z,36.80
2017-11-16T12:37:08.474Z,33.13
2017-11-16T12:39:36.326Z,29.07
2017-11-16T12:42:03.739Z,29.63
2017-11-16T12:44:33.698Z,33.37
2017-11-16T12:47:01.478Z,25.27
2017-11-16T12:49:28.915Z,29.00
2017-11-16T12:51:56.334Z,27.47
2017-11-16T12:54:23.753Z,25.80
2017-11-16T12:56:52.170Z,26.70
2017-11-16T12:59:19.599Z,28.33
2017-11-16T13:01:47.019Z,27.37
2017-11-16T13:04:14.445Z,25.00
2017-11-16T13:06:42.640Z,27.23
2017-11-16T13:09:10.840Z,30.33
2017-11-16T13:11:38.820Z,30.67
2017-11-16T13:14:06.828Z,31.43
2017-11-16T13:16:35.205Z,30.37
2017-11-16T13:19:08.096Z,29.30
2017-11-16T13:21:36.319Z,30.93
2017-11-16T13:24:03.745Z,27.23
2017-11-16T13:26:31.936Z,25.57
2017-11-16T13:28:59.366Z,23.37
2017-11-16T13:31:31.582Z,25.03
2017-11-16T13:33:59.429Z,28.17
2017-11-16T13:36:27.294Z,29.20
2017-11-16T13:38:55.282Z,30.80
2017-11-16T13:41:22.711Z,31.13
2017-11-16T13:43:50.129Z,32.87
2017-11-16T13:46:18.085Z,30.43
2017-11-16T13:51:42.656Z,43.57
2017-11-16T13:54:10.100Z,48.90
2017-11-16T13:56:37.529Z,44.57
2017-11-16T13:59:04.984Z,49.13
2017-11-16T14:01:32.406Z,48.27
2017-11-16T14:04:00.130Z,54.93
2017-11-16T14:06:28.867Z,55.07
2017-11-16T14:08:56.273Z,45.83
2017-11-16T14:11:24.474Z,46.20
2017-11-16T14:13:51.888Z,49.70
2017-11-16T14:16:19.918Z,40.50
2017-11-16T14:18:47.352Z,49.27
2017-11-16T14:21:14.778Z,52.20
2017-11-16T14:23:42.593Z,49.37
2017-11-16T14:26:10.623Z,46.27
2017-11-16T14:28:54.989Z,52.70
2017-11-16T14:31:22.409Z,60.00
2017-11-16T14:33:49.880Z,60.40
2017-11-16T14:36:17.311Z,68.23
2017-11-16T14:38:44.743Z,77.10
2017-11-16T14:41:12.310Z,69.30
2017-11-16T14:43:39.839Z,70.60
2017-11-16T14:46:07.283Z,66.63
2017-11-16T14:48:36.626Z,72.23
2017-11-16T14:51:04.044Z,63.30
2017-11-16T14:53:31.482Z,77.97
2017-11-16T14:55:58.898Z,67.20
2017-11-16T14:58:26.318Z,61.63
2017-11-16T15:00:54.325Z,70.90
2017-11-16T15:03:21.755Z,69.67
2017-11-16T15:05:49.168Z,69.27
2017-11-16T15:08:16.592Z,70.23
2017-11-16T15:10:46.563Z,67.27
2017-11-16T15:13:14.749Z,74.03
2017-11-16T15:15:42.982Z,62.10
2017-11-16T15:18:10.409Z,65.87
2017-11-16T15:20:37.829Z,65.50
2017-11-16T15:23:06.032Z,71.00
2017-11-16T15:25:33.445Z,69.17
2017-11-16T15:28:15.753Z,80.97
2017-11-16T15:30:44.753Z,81.90
2017-11-16T15:33:13.218Z,74.57
2017-11-16T15:35:41.254Z,76.83
2017-11-16T15:38:08.675Z,85.80
2017-11-16T15:40:36.090Z,73.73
2017-11-16T15:43:03.521Z,80.40
2017-11-16T15:45:30.955Z,81.20
2017-11-16T15:47:58.390Z,84.50
2017-11-16T15:50:26.582Z,87.93
2017-11-16T15:52:54.011Z,94.30
2017-11-16T15:55:22.198Z,96.77
2017-11-16T15:57:50.946Z,89.57
2017-11-16T16:00:19.031Z,99.07
2017-11-16T16:02:46.502Z,96.27
2017-11-16T16:05:14.699Z,104.73
2017-11-16T16:07:43.606Z,92.07
2017-11-16T16:10:11.030Z,91.23
2017-11-16T16:12:39.501Z,89.30
2017-11-16T16:15:06.935Z,83.67
2017-11-16T16:17:34.362Z,89.53
2017-11-16T16:20:02.178Z,82.17
2017-11-16T16:22:30.150Z,84.70
2017-11-16T16:24:57.573Z,85.30
2017-11-16T16:27:31.522Z,85.67
2017-11-16T16:30:03.345Z,92.80
2017-11-16T16:32:31.812Z,95.17
2017-11-16T16:34:59.515Z,89.80
2017-11-16T16:37:26.969Z,83.40
2017-11-16T16:39:54.417Z,84.33
2017-11-16T16:42:21.836Z,94.20
2017-11-16T16:44:49.261Z,91.33
2017-11-16T16:47:17.459Z,102.43
2017-11-16T16:49:44.926Z,102.77
2017-11-16T16:52:12.408Z,106.60
2017-11-16T16:54:39.841Z,94.37
2017-11-16T16:57:08.007Z,106.20
2017-11-16T16:59:35.430Z,98.40
2017-11-16T17:02:03.625Z,102.77
2017-11-16T17:04:31.310Z,95.33
2017-11-16T17:06:58.725Z,92.53
2017-11-16T17:09:27.350Z,96.23
2017-11-16T17:11:55.529Z,92.17
2017-11-16T17:14:22.958Z,96.97
2017-11-16T17:16:51.305Z,94.40
2017-11-16T17:19:19.697Z,111.30
2017-11-16T17:21:52.578Z,103.00
2017-11-16T17:24:20.778Z,92.43
2017-11-16T17:26:48.212Z,97.70
2017-11-16T17:29:16.414Z,98.53
2017-11-16T17:31:46.425Z,83.37
2017-11-16T17:34:13.870Z,93.27
2017-11-16T17:36:44.935Z,75.90
2017-11-16T17:39:12.933Z,71.80
2017-11-16T17:41:41.067Z,74.47
2017-11-16T17:44:09.801Z,81.30
2017-11-16T17:46:37.226Z,71.60
2017-11-16T17:49:04.657Z,68.67
2017-11-16T17:51:33.095Z,71.23
2017-11-16T17:54:00.998Z,72.00
2017-11-16T17:56:29.184Z,63.00
2017-11-16T17:58:56.613Z,70.73
2017-11-16T18:01:24.050Z,75.90
2017-11-16T18:03:52.455Z,71.53
2017-11-16T18:06:19.891Z,72.57
2017-11-16T18:08:47.312Z,68.43
2017-11-16T18:11:14.737Z,65.87
2017-11-16T18:13:42.953Z,65.07
2017-11-16T18:16:10.382Z,67.93
2017-11-16T18:18:37.809Z,59.37
2017-11-16T18:21:05.246Z,59.53
2017-11-16T18:23:32.674Z,57.03
2017-11-16T18:26:00.115Z,57.83
2017-11-16T18:28:27.535Z,57.50
2017-11-16T18:30:54.973Z,59.87
2017-11-16T18:33:22.389Z,64.37
2017-11-16T18:35:49.930Z,62.47
2017-11-16T18:38:18.127Z,58.43
2017-11-16T18:40:45.550Z,60.90
2017-11-16T18:43:14.281Z,64.40
2017-11-16T18:45:42.293Z,66.47
2017-11-16T18:48:09.729Z,62.80
2017-11-16T18:50:37.150Z,67.07
2017-11-16T18:53:04.869Z,67.20
2017-11-16T18:55:35.925Z,65.57
2017-11-16T18:58:04.135Z,64.37
2017-11-16T19:00:31.532Z,64.40
2017-11-16T19:02:58.957Z,63.37
2017-11-16T19:05:26.377Z,56.27
2017-11-16T19:07:54.572Z,56.83
2017-11-16T19:10:21.993Z,58.83
2017-11-16T19:12:49.818Z,59.83
2017-11-16T19:15:17.228Z,58.90
2017-11-16T19:17:45.421Z,58.60
2017-11-16T19:20:13.047Z,54.23
2017-11-16T19:22:40.456Z,55.50
2017-11-16T19:25:07.881Z,49.90
2017-11-16T19:27:36.083Z,50.50
2017-11-16T19:30:03.502Z,52.30
2017-11-16T19:32:31.711Z,50.63
2017-11-16T19:34:59.135Z,50.27
2017-11-16T19:37:27.722Z,49.87
2017-11-16T19:39:55.913Z,52.07
2017-11-16T19:42:34.369Z,48.57
2017-11-16T19:45:01.814Z,47.60
2017-11-16T19:47:29.242Z,48.60
2017-11-16T19:49:56.669Z,44.83
2017-11-16T19:52:24.101Z,46.20
2017-11-16T19:54:51.517Z,38.43
2017-11-16T19:57:18.937Z,43.87
2017-11-16T19:59:46.364Z,45.10
2017-11-16T20:02:13.785Z,44.50
2017-11-16T20:04:41.980Z,44.10
2017-11-16T20:07:09.823Z,44.43
2017-11-16T20:09:37.677Z,51.57
2017-11-16T20:12:08.465Z,47.77
2017-11-16T20:14:36.000Z,47.70
2017-11-16T20:17:04.169Z,49.77
2017-11-16T20:19:31.598Z,47.73
2017-11-16T20:22:05.513Z,50.97
2017-11-16T20:24:33.489Z,47.13
2017-11-16T20:27:00.902Z,47.10
2017-11-16T20:29:28.880Z,44.83
2017-11-16T20:31:56.701Z,52.90
2017-11-16T20:34:24.138Z,49.23
2017-11-16T20:40:04.302Z,47.53
2017-11-16T20:42:38.398Z,45.97
2017-11-16T20:45:11.617Z,44.27
2017-11-16T20:47:44.818Z,45.70
2017-11-16T20:53:21.443Z,47.07
2017-11-16T20:55:48.887Z,52.00
2017-11-16T20:58:16.754Z,53.43
2017-11-16T21:00:44.514Z,53.83
2017-11-16T21:03:11.958Z,53.23
2017-11-16T21:05:39.386Z,55.73
2017-11-16T21:08:08.023Z,54.00
2017-11-16T21:10:35.462Z,53.17
2017-11-16T21:13:02.890Z,48.93
2017-11-16T21:15:31.482Z,56.27
2017-11-16T21:17:59.662Z,66.57
2017-11-16T21:20:27.656Z,58.53
2017-11-16T21:22:55.089Z,55.40
2017-11-16T21:25:22.529Z,54.67
2017-11-16T21:27:50.741Z,57.00
2017-11-16T21:30:18.740Z,60.33
2017-11-16T21:32:46.183Z,53.77
2017-11-16T21:35:13.605Z,54.27
2017-11-16T21:37:41.033Z,47.23
2017-11-16T21:40:08.461Z,55.27
2017-11-16T21:42:36.330Z,52.20
2017-11-16T21:45:04.795Z,53.03
2017-11-16T21:47:32.219Z,52.77
2017-11-16T21:49:59.653Z,54.90
2017-11-16T21:52:31.372Z,49.93
2017-11-16T21:54:59.342Z,51.90
2017-11-16T21:57:26.793Z,52.30
2017-11-16T21:59:54.990Z,50.73
2017-11-16T22:02:22.431Z,51.07
2017-11-16T22:04:49.864Z,50.53
2017-11-16T22:07:17.294Z,44.67
2017-11-16T22:09:45.499Z,45.90
2017-11-16T22:12:12.943Z,49.80
2017-11-16T22:14:40.811Z,51.93
2017-11-16T22:17:09.071Z,45.47
2017-11-16T22:19:36.472Z,54.97
2017-11-16T22:22:03.914Z,51.97
2017-11-16T22:24:31.883Z,52.13
2017-11-16T22:27:00.689Z,50.17
2017-11-16T22:29:30.494Z,50.17
2017-11-16T22:31:57.918Z,57.23
2017-11-16T22:34:25.877Z,52.10
2017-11-16T22:36:57.590Z,51.27
2017-11-16T22:39:25.021Z,49.73
2017-11-16T22:41:52.475Z,47.73
2017-11-16T22:44:19.913Z,50.57
2017-11-16T22:46:49.875Z,49.47
2017-11-16T22:49:17.303Z,48.90
2017-11-16T22:51:44.733Z,47.97
2017-11-16T22:54:12.937Z,44.13
2017-11-16T22:56:40.485Z,45.23
2017-11-16T22:59:07.936Z,51.47
2017-11-16T23:01:35.377Z,48.57
2017-11-16T23:04:03.581Z,50.07
2017-11-16T23:06:31.713Z,46.67
2017-11-16T23:08:59.918Z,51.80
2017-11-16T23:11:28.163Z,51.20
2017-11-16T23:13:55.617Z,55.73
2017-11-16T23:16:23.033Z,52.73
2017-11-16T23:18:50.466Z,50.73
2017-11-16T23:21:17.897Z,53.67
2017-11-16T23:23:46.365Z,54.80
2017-11-16T23:26:13.788Z,57.00
2017-11-16T23:28:41.225Z,59.47
2017-11-16T23:31:08.664Z,64.57
2017-11-16T23:33:36.100Z,62.67
2017-11-16T23:36:04.304Z,65.23
2017-11-16T23:38:32.284Z,68.80
2017-11-16T23:40:59.726Z,73.37
2017-11-16T23:43:27.175Z,78.17
2017-11-16T23:45:55.374Z,74.37
2017-11-16T23:48:23.213Z,76.20
2017-11-16T23:50:51.819Z,77.57
2017-11-16T23:53:21.020Z,72.33
2017-11-16T23:55:49.479Z,71.77
2017-11-16T23:58:17.687Z,63.87
